Back to Top

Language: 

My Weather Underground Personal Weather Station Historical Data with Graphs...

Delerius Weather Station Historical Data
 
Daily Summary for September 21, 2018 Units:  Metric    English   Both
« Previous Day
Next Day »
Daily Weekly Monthly Yearly Custom
  Current: High: Low: Average:
Temperature: 10.3 °C 16.2 °C 8.1 °C 10.8 °C
Dew Point: 8.1 °C 15.4 °C 5.8 °C 8.4 °C
Humidity: 86 % 95 % 73 % 85 %
Wind Speed: 9.7 km/h 48.3 km/h 6.4 km/h 23.3 km/h
Wind Gust: 14.5 km/h 78.9 km/h - -
Wind:WSW - - West
Pressure: 1012.1 hPa 1012.1 hPa 986.3 hPa -
Precipitation: 3.3 mm      
Historical Graphs
 
 
Tabular Data for September 21, 2018
Time Temperature Dew Point Pressure Wind Wind Speed Wind Gust Humidity Rainfall Rate (Hourly) solar Conditions
00:04 16.2 °C 15.4 °C 988.4 hPa SSW 11.3 km/h 17.7 km/h 95 % 1.27 mm 0.00 W/m2
00:09 16.2 °C 15.4 °C 988.4 hPa SSW 14.5 km/h 25.7 km/h 95 % 1.27 mm 0.00 W/m2
00:14 16.2 °C 15.4 °C 988 hPa SW 14.5 km/h 24.1 km/h 95 % 1.02 mm 0.00 W/m2
00:19 16.1 °C 15.1 °C 988 hPa SW 22.5 km/h 32.2 km/h 94 % 1.02 mm 0.00 W/m2
00:24 16.1 °C 15.1 °C 988 hPa SW 22.5 km/h 33.8 km/h 94 % 0.76 mm 0.00 W/m2
00:29 16.1 °C 15.1 °C 988 hPa SW 17.7 km/h 24.1 km/h 94 % 0.51 mm 0.00 W/m2
00:30 16.1 °C 15.1 °C 988 hPa SW 16.1 km/h 24.1 km/h 94 % 0.51 mm 0.00 W/m2
00:39 16 °C 15.1 °C 987.7 hPa SSW 12.9 km/h 20.9 km/h 94 % 0.51 mm 0.00 W/m2
00:44 16 °C 15.1 °C 988 hPa SW 16.1 km/h 24.1 km/h 94 % 0.51 mm 0.00 W/m2
00:49 16 °C 15.1 °C 987.7 hPa SSW 17.7 km/h 29 km/h 94 % 0.51 mm 0.00 W/m2
00:54 16 °C 15.1 °C 987.4 hPa SW 19.3 km/h 35.4 km/h 94 % 0.51 mm 0.00 W/m2
00:59 16.1 °C 14.9 °C 987.4 hPa SSW 22.5 km/h 38.6 km/h 93 % 0.51 mm 0.00 W/m2
01:00 16.1 °C 14.9 °C 987.4 hPa SSW 24.1 km/h 38.6 km/h 93 % 0.51 mm 0.00 W/m2
01:14 15.9 °C 14.4 °C 987 hPa SW 27.4 km/h 40.2 km/h 91 % 0.51 mm 0.00 W/m2
01:19 15.9 °C 14.3 °C 987 hPa SW 35.4 km/h 51.5 km/h 90 % 0.25 mm 0.00 W/m2
01:24 15.9 °C 13.9 °C 986.7 hPa SW 29 km/h 51.5 km/h 88 % 0 mm 0.00 W/m2
01:29 15.8 °C 13.8 °C 986.7 hPa SW 27.4 km/h 43.5 km/h 88 % 0 mm 0.00 W/m2
01:34 15.8 °C 13.4 °C 986.7 hPa SW 30.6 km/h 49.9 km/h 86 % 0 mm 0.00 W/m2
01:39 15.7 °C 13.4 °C 986.7 hPa SW 22.5 km/h 38.6 km/h 86 % 0 mm 0.00 W/m2
01:44 15.5 °C 13 °C 986.7 hPa SW 22.5 km/h 41.8 km/h 85 % 0 mm 0.00 W/m2
01:49 15.3 °C 12.8 °C 986.7 hPa SW 32.2 km/h 61.2 km/h 85 % 0 mm 0.00 W/m2
01:54 15.3 °C 12.4 °C 986.3 hPa SW 30.6 km/h 40.2 km/h 83 % 0 mm 0.00 W/m2
01:59 15.4 °C 12.5 °C 986.7 hPa SW 29 km/h 45.1 km/h 83 % 0 mm 0.00 W/m2
02:04 15.3 °C 12.4 °C 987.7 hPa WSW 35.4 km/h 67.6 km/h 83 % 0 mm 0.00 W/m2
02:09 14.2 °C 11.7 °C 987.7 hPa WSW 29 km/h 49.9 km/h 85 % 0.25 mm 0.00 W/m2
02:14 13.3 °C 11.2 °C 988 hPa WSW 46.7 km/h 70.8 km/h 87 % 0.25 mm 0.00 W/m2
02:19 12.6 °C 10.5 °C 988.4 hPa West 38.6 km/h 69.2 km/h 87 % 0.25 mm 0.00 W/m2
02:24 11.9 °C 9.8 °C 988.4 hPa West 38.6 km/h 64.4 km/h 87 % 0.25 mm 0.00 W/m2
02:29 11.3 °C 9.2 °C 988.4 hPa West 29 km/h 51.5 km/h 87 % 0.25 mm 0.00 W/m2
02:34 10.8 °C 8.7 °C 988.7 hPa West 40.2 km/h 70.8 km/h 87 % 0.25 mm 0.00 W/m2
02:39 10.5 °C 8.4 °C 988.4 hPa West 35.4 km/h 48.3 km/h 87 % 0.25 mm 0.00 W/m2
02:44 10.2 °C 8.1 °C 988.4 hPa West 33.8 km/h 53.1 km/h 87 % 0.25 mm 0.00 W/m2
02:49 9.9 °C 7.8 °C 989.1 hPa West 41.8 km/h 64.4 km/h 87 % 0.25 mm 0.00 W/m2
02:54 9.7 °C 7.7 °C 989.1 hPa West 45.1 km/h 78.9 km/h 87 % 0.25 mm 0.00 W/m2
02:59 9.6 °C 7.6 °C 989.7 hPa West 35.4 km/h 51.5 km/h 87 % 0.25 mm 0.00 W/m2
03:04 9.4 °C 7.3 °C 989.7 hPa West 35.4 km/h 53.1 km/h 87 % 0.25 mm 0.00 W/m2
03:09 9.2 °C 6.8 °C 990.1 hPa West 46.7 km/h 70.8 km/h 85 % 0 mm 0.00 W/m2
03:14 9.2 °C 6.6 °C 990.1 hPa West 43.5 km/h 70.8 km/h 84 % 0 mm 0.00 W/m2
03:19 9.1 °C 6.2 °C 990.1 hPa West 48.3 km/h 69.2 km/h 82 % 0 mm 0.00 W/m2
03:24 9 °C 5.9 °C 990.1 hPa West 46.7 km/h 75.6 km/h 81 % 0 mm 0.00 W/m2
03:29 8.9 °C 5.8 °C 990.4 hPa West 43.5 km/h 74 km/h 81 % 0 mm 0.00 W/m2
03:34 8.9 °C 6 °C 991.1 hPa West 43.5 km/h 66 km/h 82 % 0 mm 0.00 W/m2
03:39 8.9 °C 6.3 °C 991.4 hPa West 41.8 km/h 74 km/h 84 % 0 mm 0.00 W/m2
03:44 8.9 °C 6.5 °C 991.4 hPa West 38.6 km/h 61.2 km/h 85 % 0 mm 0.00 W/m2
03:49 8.9 °C 6.7 °C 991.8 hPa WNW 37 km/h 49.9 km/h 86 % 0 mm 0.00 W/m2
03:54 8.9 °C 6.7 °C 992.1 hPa WNW 35.4 km/h 53.1 km/h 86 % 0 mm 0.00 W/m2
03:59 8.8 °C 6.6 °C 992.4 hPa WNW 33.8 km/h 53.1 km/h 86 % 0 mm 0.00 W/m2
04:04 8.8 °C 6.6 °C 992.8 hPa WNW 43.5 km/h 61.2 km/h 86 % 0 mm 0.00 W/m2
04:09 8.7 °C 6.5 °C 992.8 hPa WNW 30.6 km/h 53.1 km/h 86 % 0 mm 0.00 W/m2
04:14 8.7 °C 6.5 °C 993.1 hPa WNW 25.7 km/h 45.1 km/h 86 % 0 mm 0.00 W/m2
04:19 8.6 °C 6.4 °C 993.5 hPa WNW 35.4 km/h 53.1 km/h 86 % 0 mm 0.00 W/m2
04:24 8.6 °C 6.4 °C 993.5 hPa WNW 35.4 km/h 49.9 km/h 86 % 0 mm 0.00 W/m2
04:29 8.6 °C 6.4 °C 993.8 hPa WNW 35.4 km/h 51.5 km/h 86 % 0 mm 0.00 W/m2
04:34 8.5 °C 6.3 °C 993.8 hPa WNW 35.4 km/h 56.3 km/h 86 % 0 mm 0.00 W/m2
04:39 8.5 °C 6.3 °C 994.1 hPa WNW 24.1 km/h 38.6 km/h 86 % 0 mm 0.00 W/m2
04:44 8.6 °C 6.4 °C 994.1 hPa WNW 27.4 km/h 51.5 km/h 86 % 0 mm 0.00 W/m2
04:49 8.6 °C 6.4 °C 994.5 hPa WNW 33.8 km/h 54.7 km/h 86 % 0 mm 0.00 W/m2
04:54 8.6 °C 6.4 °C 994.8 hPa WNW 35.4 km/h 56.3 km/h 86 % 0 mm 0.00 W/m2
04:59 8.6 °C 6.4 °C 994.8 hPa WNW 35.4 km/h 54.7 km/h 86 % 0 mm 0.00 W/m2
05:04 8.6 °C 6.4 °C 994.8 hPa WNW 27.4 km/h 41.8 km/h 86 % 0 mm 0.00 W/m2
05:09 8.6 °C 6.4 °C 995.1 hPa WNW 29 km/h 45.1 km/h 86 % 0 mm 0.00 W/m2
05:14 8.6 °C 6.4 °C 995.1 hPa WNW 29 km/h 51.5 km/h 86 % 0 mm 0.00 W/m2
05:19 8.6 °C 6.2 °C 995.1 hPa WNW 29 km/h 46.7 km/h 85 % 0 mm 0.00 W/m2
05:24 8.6 °C 6.2 °C 995.1 hPa WNW 32.2 km/h 49.9 km/h 85 % 0 mm 0.00 W/m2
05:29 8.6 °C 6.4 °C 995.5 hPa West 24.1 km/h 40.2 km/h 86 % 0 mm 0.00 W/m2
05:34 8.6 °C 6.4 °C 995.8 hPa West 22.5 km/h 43.5 km/h 86 % 0 mm 0.00 W/m2
05:39 8.6 °C 6.4 °C 995.8 hPa WNW 24.1 km/h 40.2 km/h 86 % 0 mm 0.00 W/m2
05:44 8.6 °C 6.4 °C 995.8 hPa West 20.9 km/h 35.4 km/h 86 % 0 mm 0.00 W/m2
05:49 8.6 °C 6.6 °C 995.8 hPa West 22.5 km/h 38.6 km/h 87 % 0 mm 0.00 W/m2
05:54 8.6 °C 6.7 °C 996.2 hPa West 25.7 km/h 43.5 km/h 88 % 0 mm 0.00 W/m2
05:59 8.6 °C 6.7 °C 996.2 hPa WNW 22.5 km/h 37 km/h 88 % 0 mm 0.00 W/m2
06:04 8.6 °C 6.7 °C 996.2 hPa West 17.7 km/h 46.7 km/h 88 % 0 mm 0.00 W/m2
06:09 8.7 °C 6.7 °C 996.2 hPa WNW 24.1 km/h 45.1 km/h 87 % 0 mm 0.00 W/m2
06:14 8.7 °C 6.7 °C 996.2 hPa West 20.9 km/h 38.6 km/h 87 % 0 mm 0.00 W/m2
06:19 8.8 °C 6.6 °C 996.2 hPa West 20.9 km/h 38.6 km/h 86 % 0 mm 0.00 W/m2
06:24 8.8 °C 6.6 °C 996.5 hPa West 19.3 km/h 32.2 km/h 86 % 0 mm 0.00 W/m2
06:29 8.9 °C 6.7 °C 996.5 hPa West 20.9 km/h 37 km/h 86 % 0 mm 0.00 W/m2
06:34 8.9 °C 6.7 °C 996.8 hPa West 24.1 km/h 48.3 km/h 86 % 0 mm 0.00 W/m2
06:39 8.8 °C 6.6 °C 997.2 hPa WNW 33.8 km/h 53.1 km/h 86 % 0.25 mm 0.00 W/m2
06:44 8.6 °C 6.6 °C 996.8 hPa West 32.2 km/h 54.7 km/h 87 % 0.25 mm 0.00 W/m2
06:49 8.2 °C 6.2 °C 996.8 hPa West 30.6 km/h 43.5 km/h 87 % 0.51 mm 0.00 W/m2
06:54 8.1 °C 6.1 °C 997.2 hPa West 30.6 km/h 43.5 km/h 87 % 0.51 mm 7.00 W/m2
06:59 8.1 °C 6.2 °C 997.2 hPa WNW 30.6 km/h 53.1 km/h 88 % 0.51 mm 9.00 W/m2
07:04 8.3 °C 6.4 °C 997.5 hPa WNW 24.1 km/h 40.2 km/h 88 % 0.51 mm 9.00 W/m2
07:09 8.3 °C 6.6 °C 997.5 hPa WNW 24.1 km/h 40.2 km/h 89 % 0.51 mm 9.00 W/m2
07:14 8.3 °C 6.4 °C 997.5 hPa West 25.7 km/h 40.2 km/h 88 % 0.51 mm 11.00 W/m2
07:19 8.3 °C 6.6 °C 997.9 hPa West 17.7 km/h 30.6 km/h 89 % 0.76 mm 14.00 W/m2
07:24 8.3 °C 6.8 °C 998.2 hPa West 11.3 km/h 17.7 km/h 90 % 0.76 mm 16.00 W/m2
07:29 8.4 °C 7 °C 998.2 hPa WSW 20.9 km/h 38.6 km/h 91 % 0.76 mm 18.00 W/m2
07:34 8.4 °C 6.8 °C 998.2 hPa West 20.9 km/h 35.4 km/h 90 % 0.76 mm 21.00 W/m2
07:39 8.3 °C 6.4 °C 998.2 hPa West 25.7 km/h 40.2 km/h 88 % 0.51 mm 33.00 W/m2
07:44 8.3 °C 6.3 °C 998.5 hPa West 14.5 km/h 24.1 km/h 87 % 0.51 mm 40.00 W/m2
07:49 8.3 °C 6.3 °C 998.5 hPa West 17.7 km/h 30.6 km/h 87 % 0.25 mm 76.00 W/m2
07:54 8.4 °C 6.5 °C 998.5 hPa West 16.1 km/h 25.7 km/h 88 % 0.25 mm 121.00 W/m2
07:59 8.6 °C 6.7 °C 998.5 hPa West 16.1 km/h 24.1 km/h 88 % 0.25 mm 62.00 W/m2
08:04 8.6 °C 6.7 °C 998.9 hPa West 17.7 km/h 29 km/h 88 % 0.25 mm 118.00 W/m2
08:09 8.8 °C 7.1 °C 999.2 hPa WSW 11.3 km/h 20.9 km/h 89 % 0.25 mm 160.00 W/m2
08:14 8.9 °C 7.2 °C 999.2 hPa West 17.7 km/h 25.7 km/h 89 % 0.25 mm 46.00 W/m2
08:19 8.9 °C 7 °C 999.2 hPa West 19.3 km/h 37 km/h 88 % 0 mm 42.00 W/m2
08:24 8.9 °C 6.8 °C 999.5 hPa WSW 20.9 km/h 32.2 km/h 87 % 0 mm 39.00 W/m2
08:29 8.9 °C 6.8 °C 999.5 hPa West 22.5 km/h 40.2 km/h 87 % 0 mm 40.00 W/m2
08:34 8.9 °C 6.8 °C 999.5 hPa West 16.1 km/h 29 km/h 87 % 0 mm 62.00 W/m2
08:39 8.9 °C 6.8 °C 999.5 hPa West 9.7 km/h 22.5 km/h 87 % 0.25 mm 86.00 W/m2
08:44 8.9 °C 7 °C 999.5 hPa West 17.7 km/h 24.1 km/h 88 % 0.25 mm 90.00 W/m2
08:49 8.9 °C 7 °C 999.9 hPa West 20.9 km/h 32.2 km/h 88 % 0.25 mm 46.00 W/m2
08:54 9 °C 7.1 °C 999.9 hPa West 20.9 km/h 33.8 km/h 88 % 0.25 mm 77.00 W/m2
08:59 9.1 °C 7.2 °C 999.9 hPa WSW 17.7 km/h 37 km/h 88 % 0.25 mm 88.00 W/m2
09:04 9 °C 7.1 °C 1000.2 hPa WSW 19.3 km/h 33.8 km/h 88 % 0.25 mm 53.00 W/m2
09:09 9 °C 7.1 °C 1000.2 hPa West 14.5 km/h 22.5 km/h 88 % 0.25 mm 84.00 W/m2
09:14 9 °C 7.1 °C 1000.2 hPa WSW 16.1 km/h 29 km/h 88 % 0.25 mm 56.00 W/m2
09:19 9 °C 7.1 °C 1000.2 hPa WSW 14.5 km/h 29 km/h 88 % 0.25 mm 40.00 W/m2
09:24 9 °C 7.1 °C 1000.6 hPa WSW 17.7 km/h 30.6 km/h 88 % 0.25 mm 62.00 W/m2
09:29 8.9 °C 7 °C 1000.6 hPa WSW 22.5 km/h 33.8 km/h 88 % 0.25 mm 81.00 W/m2
09:34 8.9 °C 6.8 °C 1000.6 hPa West 27.4 km/h 45.1 km/h 87 % 0.25 mm 120.00 W/m2
09:39 8.9 °C 6.8 °C 1000.6 hPa WSW 30.6 km/h 43.5 km/h 87 % 0 mm 162.00 W/m2
09:44 8.9 °C 6.8 °C 1000.9 hPa West 24.1 km/h 40.2 km/h 87 % 0 mm 165.00 W/m2
09:49 9 °C 6.9 °C 1000.9 hPa West 24.1 km/h 40.2 km/h 87 % 0 mm 77.00 W/m2
09:54 8.9 °C 7 °C 1000.9 hPa West 24.1 km/h 38.6 km/h 88 % 0.25 mm 70.00 W/m2
09:59 8.8 °C 6.9 °C 1000.9 hPa West 22.5 km/h 33.8 km/h 88 % 0.25 mm 69.00 W/m2
10:04 8.7 °C 6.8 °C 1000.9 hPa West 17.7 km/h 29 km/h 88 % 0.25 mm 65.00 W/m2
10:09 8.7 °C 7 °C 1000.9 hPa West 19.3 km/h 32.2 km/h 89 % 0.25 mm 88.00 W/m2
10:14 8.8 °C 7.1 °C 1001.2 hPa WSW 16.1 km/h 30.6 km/h 89 % 0.25 mm 155.00 W/m2
10:19 9.2 °C 7.7 °C 1000.9 hPa West 19.3 km/h 29 km/h 90 % 0.25 mm 341.00 W/m2
10:24 9.6 °C 8.1 °C 1001.2 hPa West 20.9 km/h 32.2 km/h 90 % 0.25 mm 534.00 W/m2
10:29 9.9 °C 7.8 °C 1001.2 hPa WSW 27.4 km/h 46.7 km/h 87 % 0.25 mm 102.00 W/m2
10:34 9.8 °C 7.6 °C 1001.6 hPa West 22.5 km/h 38.6 km/h 86 % 0.25 mm 185.00 W/m2
10:39 9.7 °C 7.4 °C 1001.2 hPa West 17.7 km/h 25.7 km/h 86 % 0.25 mm 204.00 W/m2
10:44 9.7 °C 7.3 °C 1001.2 hPa WSW 27.4 km/h 41.8 km/h 85 % 0.25 mm 130.00 W/m2
10:49 9.5 °C 6.9 °C 1001.2 hPa WSW 22.5 km/h 35.4 km/h 84 % 0.25 mm 69.00 W/m2
10:54 9.2 °C 6.8 °C 1001.2 hPa West 19.3 km/h 30.6 km/h 85 % 0.25 mm 105.00 W/m2
10:59 9.1 °C 7.1 °C 1001.2 hPa West 22.5 km/h 33.8 km/h 87 % 0.25 mm 302.00 W/m2
11:04 9.3 °C 7.4 °C 1001.2 hPa WSW 16.1 km/h 30.6 km/h 88 % 0.25 mm 142.00 W/m2
11:09 9.3 °C 7.2 °C 1001.2 hPa West 14.5 km/h 24.1 km/h 87 % 0.25 mm 97.00 W/m2
11:14 9.3 °C 7.2 °C 1001.6 hPa West 20.9 km/h 45.1 km/h 87 % 0.25 mm 109.00 W/m2
11:19 9.6 °C 7.4 °C 1001.6 hPa West 24.1 km/h 37 km/h 86 % 0.25 mm 83.00 W/m2
11:24 9.8 °C 7.2 °C 1001.6 hPa West 20.9 km/h 32.2 km/h 84 % 0.25 mm 60.00 W/m2
11:29 9.9 °C 7.2 °C 1001.6 hPa WSW 19.3 km/h 32.2 km/h 83 % 0.25 mm 84.00 W/m2
11:34 9.9 °C 6.8 °C 1001.6 hPa WSW 25.7 km/h 41.8 km/h 81 % 0.25 mm 135.00 W/m2
11:39 10.1 °C 6.8 °C 1001.6 hPa WSW 24.1 km/h 40.2 km/h 80 % 0.25 mm 237.00 W/m2
11:44 10.6 °C 7.5 °C 1001.6 hPa WSW 25.7 km/h 49.9 km/h 81 % 0.25 mm 775.00 W/m2
11:49 11.1 °C 7.6 °C 1001.6 hPa West 29 km/h 46.7 km/h 79 % 0.25 mm 262.00 W/m2
11:54 11.2 °C 7.5 °C 1001.9 hPa West 20.9 km/h 29 km/h 78 % 0 mm 283.00 W/m2
11:59 11.1 °C 7.4 °C 1001.6 hPa West 27.4 km/h 45.1 km/h 78 % 0 mm 816.00 W/m2
12:04 11.2 °C 7.3 °C 1001.6 hPa WSW 22.5 km/h 38.6 km/h 77 % 0 mm 362.00 W/m2
12:09 11.5 °C 7.8 °C 1001.6 hPa West 20.9 km/h 40.2 km/h 78 % 0 mm 366.00 W/m2
12:14 11.4 °C 7.3 °C 1001.6 hPa West 25.7 km/h 40.2 km/h 76 % 0 mm 128.00 W/m2
12:19 11.3 °C 7 °C 1001.6 hPa WSW 17.7 km/h 32.2 km/h 75 % 0 mm 130.00 W/m2
12:24 11.3 °C 7.2 °C 1001.9 hPa West 25.7 km/h 43.5 km/h 76 % 0 mm 396.00 W/m2
12:29 11.6 °C 7.7 °C 1001.9 hPa WSW 20.9 km/h 45.1 km/h 77 % 0 mm 221.00 W/m2
12:34 11.9 °C 8 °C 1001.9 hPa West 24.1 km/h 38.6 km/h 77 % 0 mm 795.00 W/m2
12:39 11.8 °C 7.5 °C 1001.9 hPa WSW 27.4 km/h 38.6 km/h 75 % 0 mm 209.00 W/m2
12:44 11.5 °C 7.6 °C 1001.9 hPa WSW 19.3 km/h 33.8 km/h 77 % 0 mm 360.00 W/m2
12:49 11.5 °C 7.6 °C 1001.9 hPa WSW 24.1 km/h 53.1 km/h 77 % 0 mm 178.00 W/m2
12:54 11.7 °C 7.6 °C 1002.3 hPa West 19.3 km/h 30.6 km/h 76 % 0 mm 306.00 W/m2
12:59 12.1 °C 7.8 °C 1001.9 hPa WSW 19.3 km/h 33.8 km/h 75 % 0 mm 401.00 W/m2
13:04 12.2 °C 7.9 °C 1002.3 hPa SW 17.7 km/h 25.7 km/h 75 % 0 mm 279.00 W/m2
13:09 12.1 °C 7.6 °C 1002.3 hPa WSW 24.1 km/h 40.2 km/h 74 % 0 mm 311.00 W/m2
13:14 12.1 °C 7.4 °C 1002.6 hPa WSW 33.8 km/h 54.7 km/h 73 % 0 mm 366.00 W/m2
13:19 12.3 °C 8.2 °C 1002.6 hPa West 20.9 km/h 41.8 km/h 76 % 0 mm 531.00 W/m2
13:24 12.2 °C 8.5 °C 1002.6 hPa WSW 24.1 km/h 35.4 km/h 78 % 0 mm 220.00 W/m2
13:29 11.7 °C 8.4 °C 1002.6 hPa WSW 25.7 km/h 41.8 km/h 80 % 0 mm 334.00 W/m2
13:34 11.4 °C 8.6 °C 1002.6 hPa SW 20.9 km/h 30.6 km/h 83 % 0 mm 411.00 W/m2
13:39 11.4 °C 8.8 °C 1002.6 hPa WSW 20.9 km/h 35.4 km/h 84 % 0 mm 360.00 W/m2
13:44 11.6 °C 9.2 °C 1002.6 hPa WSW 16.1 km/h 24.1 km/h 85 % 0 mm 418.00 W/m2
13:49 11.8 °C 9.3 °C 1002.6 hPa WSW 17.7 km/h 29 km/h 85 % 0 mm 722.00 W/m2
13:54 12 °C 9.4 °C 1002.6 hPa WSW 20.9 km/h 32.2 km/h 84 % 0 mm 355.00 W/m2
13:59 11.8 °C 8.8 °C 1002.6 hPa WSW 22.5 km/h 37 km/h 82 % 0 mm 234.00 W/m2
14:04 11.7 °C 8.9 °C 1002.6 hPa WSW 20.9 km/h 32.2 km/h 83 % 0 mm 272.00 W/m2
14:09 11.5 °C 8.7 °C 1002.6 hPa WSW 25.7 km/h 40.2 km/h 83 % 0 mm 169.00 W/m2
14:14 11.3 °C 8.9 °C 1002.6 hPa WSW 20.9 km/h 38.6 km/h 85 % 0 mm 151.00 W/m2
14:19 11.2 °C 8.9 °C 1002.6 hPa WSW 20.9 km/h 33.8 km/h 86 % 0 mm 183.00 W/m2
14:24 11.1 °C 9 °C 1002.6 hPa West 22.5 km/h 33.8 km/h 87 % 0.25 mm 251.00 W/m2
14:29 11.1 °C 9 °C 1002.9 hPa West 27.4 km/h 37 km/h 87 % 0.25 mm 209.00 W/m2
14:34 11.3 °C 9.6 °C 1002.6 hPa West 20.9 km/h 35.4 km/h 89 % 0.25 mm 316.00 W/m2
14:39 11.6 °C 9.8 °C 1002.6 hPa West 24.1 km/h 40.2 km/h 89 % 0.25 mm 497.00 W/m2
14:44 11.7 °C 9.8 °C 1002.6 hPa West 30.6 km/h 48.3 km/h 88 % 0.25 mm 218.00 W/m2
14:49 11.8 °C 9.7 °C 1002.6 hPa West 25.7 km/h 40.2 km/h 87 % 0.25 mm 134.00 W/m2
14:54 11.9 °C 9.8 °C 1002.9 hPa West 29 km/h 54.7 km/h 87 % 0.25 mm 93.00 W/m2
14:59 11.8 °C 9.7 °C 1002.9 hPa West 29 km/h 49.9 km/h 87 % 0.51 mm 413.00 W/m2
15:04 12.2 °C 10.4 °C 1002.9 hPa West 24.1 km/h 38.6 km/h 89 % 0.51 mm 766.00 W/m2
15:09 12.5 °C 10.2 °C 1003.3 hPa West 29 km/h 49.9 km/h 86 % 0.51 mm 142.00 W/m2
15:14 12.4 °C 9.9 °C 1003.3 hPa West 24.1 km/h 40.2 km/h 85 % 0.51 mm 97.00 W/m2
15:19 12 °C 9.7 °C 1003.6 hPa West 24.1 km/h 46.7 km/h 86 % 0.76 mm 255.00 W/m2
15:24 12.1 °C 10.2 °C 1003.6 hPa West 25.7 km/h 45.1 km/h 88 % 0.51 mm 302.00 W/m2
15:29 12.3 °C 10.4 °C 1003.6 hPa West 24.1 km/h 35.4 km/h 88 % 0.51 mm 388.00 W/m2
15:34 12.5 °C 10.6 °C 1003.9 hPa West 24.1 km/h 37 km/h 88 % 0.51 mm 262.00 W/m2
15:39 12.4 °C 10.1 °C 1004.3 hPa West 27.4 km/h 40.2 km/h 86 % 0.51 mm 257.00 W/m2
15:44 12.3 °C 10 °C 1004.3 hPa West 29 km/h 46.7 km/h 86 % 0.51 mm 162.00 W/m2
15:49 12.1 °C 9.8 °C 1004.3 hPa West 22.5 km/h 35.4 km/h 86 % 0.51 mm 148.00 W/m2
15:54 12 °C 9.9 °C 1004.3 hPa West 22.5 km/h 41.8 km/h 87 % 0.51 mm 425.00 W/m2
15:59 12.1 °C 10 °C 1004.6 hPa West 25.7 km/h 35.4 km/h 87 % 0.51 mm 322.00 W/m2
16:04 12.1 °C 9.8 °C 1004.6 hPa WNW 20.9 km/h 38.6 km/h 86 % 0.51 mm 369.00 W/m2
16:09 12.3 °C 10 °C 1004.6 hPa West 22.5 km/h 37 km/h 86 % 0.51 mm 480.00 W/m2
16:14 12.6 °C 10.2 °C 1005 hPa West 29 km/h 43.5 km/h 85 % 0.25 mm 380.00 W/m2
16:19 12.8 °C 9.8 °C 1005 hPa WNW 29 km/h 45.1 km/h 82 % 0 mm 373.00 W/m2
16:24 12.9 °C 9.3 °C 1005.3 hPa WNW 30.6 km/h 46.7 km/h 79 % 0 mm 378.00 W/m2
16:29 13.1 °C 9.2 °C 1005.6 hPa WNW 35.4 km/h 48.3 km/h 77 % 0 mm 366.00 W/m2
16:34 13.1 °C 8.9 °C 1005.6 hPa WNW 29 km/h 48.3 km/h 76 % 0 mm 308.00 W/m2
16:39 13.2 °C 9.3 °C 1005.6 hPa WNW 20.9 km/h 35.4 km/h 77 % 0 mm 253.00 W/m2
16:42 13.1 °C 8.8 °C 1006 hPa WNW 27.4 km/h 37 km/h 75 % 0 mm 104.00 W/m2
16:54 12.5 °C 8.8 °C 1006 hPa West 19.3 km/h 32.2 km/h 78 % 0 mm 33.00 W/m2
16:59 12.1 °C 8.6 °C 1006.3 hPa WNW 22.5 km/h 33.8 km/h 79 % 0.25 mm 30.00 W/m2
17:04 11.7 °C 8.7 °C 1006.7 hPa NW 14.5 km/h 30.6 km/h 82 % 0.25 mm 125.00 W/m2
17:09 11.4 °C 8.9 °C 1006.7 hPa NW 14.5 km/h 24.1 km/h 85 % 0.51 mm 65.00 W/m2
17:14 11.2 °C 8.9 °C 1006.7 hPa NW 9.7 km/h 16.1 km/h 86 % 0.51 mm 135.00 W/m2
17:19 11.3 °C 9.4 °C 1007 hPa WNW 12.9 km/h 17.7 km/h 88 % 0.51 mm 174.00 W/m2
17:24 11.4 °C 9.5 °C 1007 hPa WNW 17.7 km/h 29 km/h 88 % 0.51 mm 207.00 W/m2
17:30 11.6 °C 9.5 °C 1007.3 hPa WNW 17.7 km/h 29 km/h 87 % 0.51 mm 232.00 W/m2
17:34 11.9 °C 9.6 °C 1007.3 hPa WNW 19.3 km/h 35.4 km/h 86 % 0.51 mm 193.00 W/m2
17:39 12.1 °C 9.5 °C 1007.3 hPa West 24.1 km/h 43.5 km/h 84 % 0.51 mm 53.00 W/m2
17:44 11.9 °C 9.1 °C 1007.7 hPa WNW 17.7 km/h 30.6 km/h 83 % 0.51 mm 49.00 W/m2
17:49 11.8 °C 9 °C 1007.7 hPa WNW 19.3 km/h 33.8 km/h 83 % 0.51 mm 47.00 W/m2
17:54 11.7 °C 9.1 °C 1008 hPa WNW 24.1 km/h 37 km/h 84 % 0.51 mm 49.00 W/m2
17:59 11.6 °C 9 °C 1008 hPa WNW 24.1 km/h 38.6 km/h 84 % 0.25 mm 86.00 W/m2
18:04 11.5 °C 8.7 °C 1008.4 hPa WNW 20.9 km/h 35.4 km/h 83 % 0.25 mm 51.00 W/m2
18:09 11.4 °C 8.6 °C 1008.4 hPa WNW 20.9 km/h 37 km/h 83 % 0 mm 47.00 W/m2
18:14 11.3 °C 8.5 °C 1008.4 hPa WNW 20.9 km/h 35.4 km/h 83 % 0 mm 107.00 W/m2
18:19 11.2 °C 8.6 °C 1008.4 hPa WNW 17.7 km/h 35.4 km/h 84 % 0 mm 65.00 W/m2
18:24 11.1 °C 8.3 °C 1008.4 hPa WNW 17.7 km/h 32.2 km/h 83 % 0 mm 18.00 W/m2
18:30 11 °C 8.4 °C 1008.7 hPa WNW 12.9 km/h 22.5 km/h 84 % 0 mm 12.00 W/m2
18:34 10.9 °C 8.3 °C 1008.7 hPa West 17.7 km/h 29 km/h 84 % 0 mm 11.00 W/m2
18:39 10.8 °C 8.2 °C 1008.7 hPa WNW 16.1 km/h 25.7 km/h 84 % 0 mm 11.00 W/m2
18:44 10.8 °C 8.2 °C 1009 hPa West 19.3 km/h 29 km/h 84 % 0 mm 18.00 W/m2
18:49 10.9 °C 8.3 °C 1009 hPa WNW 17.7 km/h 32.2 km/h 84 % 0 mm 14.00 W/m2
18:54 11 °C 8.4 °C 1009 hPa West 17.7 km/h 29 km/h 84 % 0 mm 11.00 W/m2
18:59 11.1 °C 8.3 °C 1009.4 hPa WNW 20.9 km/h 33.8 km/h 83 % 0 mm 7.00 W/m2
19:05 11.1 °C 8.2 °C 1009.7 hPa WNW 20.9 km/h 35.4 km/h 82 % 0 mm 5.00 W/m2
19:09 11.1 °C 8.2 °C 1009.7 hPa West 16.1 km/h 30.6 km/h 82 % 0 mm 5.00 W/m2
19:14 11 °C 8.1 °C 1009.7 hPa West 20.9 km/h 29 km/h 82 % 0 mm 0.00 W/m2
19:19 10.9 °C 7.9 °C 1010 hPa West 17.7 km/h 29 km/h 82 % 0 mm 0.00 W/m2
19:24 10.9 °C 7.9 °C 1010 hPa West 17.7 km/h 32.2 km/h 82 % 0 mm 0.00 W/m2
19:29 10.8 °C 7.8 °C 1010 hPa West 19.3 km/h 30.6 km/h 82 % 0 mm 0.00 W/m2
19:34 10.7 °C 7.8 °C 1010.4 hPa WNW 16.1 km/h 32.2 km/h 82 % 0 mm 0.00 W/m2
19:39 10.7 °C 7.9 °C 1010.4 hPa WNW 16.1 km/h 25.7 km/h 83 % 0 mm 0.00 W/m2
19:45 10.7 °C 7.9 °C 1010.4 hPa WNW 17.7 km/h 25.7 km/h 83 % 0 mm 0.00 W/m2
19:49 10.7 °C 7.9 °C 1010.7 hPa West 14.5 km/h 20.9 km/h 83 % 0 mm 0.00 W/m2
19:54 10.6 °C 8 °C 1010.7 hPa West 14.5 km/h 25.7 km/h 84 % 0 mm 0.00 W/m2
20:00 10.6 °C 8 °C 1011.1 hPa West 14.5 km/h 20.9 km/h 84 % 0 mm 0.00 W/m2
20:04 10.6 °C 8 °C 1011.1 hPa West 12.9 km/h 20.9 km/h 84 % 0 mm 0.00 W/m2
20:09 10.4 °C 7.8 °C 1011.1 hPa West 6.4 km/h 12.9 km/h 84 % 0 mm 0.00 W/m2
20:14 10.4 °C 7.8 °C 1011.4 hPa West 9.7 km/h 14.5 km/h 84 % 0 mm 0.00 W/m2
20:19 10.4 °C 7.8 °C 1011.7 hPa WNW 16.1 km/h 25.7 km/h 84 % 0 mm 0.00 W/m2
20:24 10.4 °C 7.8 °C 1011.7 hPa WNW 11.3 km/h 17.7 km/h 84 % 0 mm 0.00 W/m2
20:29 10.4 °C 7.8 °C 1011.7 hPa West 9.7 km/h 14.5 km/h 84 % 0 mm 0.00 W/m2
20:34 10.4 °C 7.8 °C 1011.7 hPa West 6.4 km/h 11.3 km/h 84 % 0 mm 0.00 W/m2
20:39 10.5 °C 7.9 °C 1011.7 hPa West 12.9 km/h 16.1 km/h 84 % 0 mm 0.00 W/m2
20:44 10.5 °C 8.1 °C 1012.1 hPa West 8 km/h 12.9 km/h 85 % 0 mm 0.00 W/m2
20:49 10.4 °C 8 °C 1012.1 hPa West 9.7 km/h 14.5 km/h 85 % 0 mm 0.00 W/m2
20:54 10.4 °C 8 °C 1011.7 hPa WSW 6.4 km/h 11.3 km/h 85 % 0 mm 0.00 W/m2
20:59 10.3 °C 8.1 °C 1012.1 hPa WSW 9.7 km/h 14.5 km/h 86 % 0 mm 0.00 W/m2
21:04 10.3 °C 8.1 °C 1012.1 hPa West 9.7 km/h 17.7 km/h 86 % 0 mm 0.00 W/m2
21:09 10.3 °C 8.1 °C 1012.1 hPa WSW 9.7 km/h 14.5 km/h 86 % 0 mm 0.00 W/m2
Delerius-Weather
Compliments of Weather Underground - 2 mb

Data updates at regular intervals.